createdAt,value
2019-05-26T00:00:04.021Z,5
2019-05-26T00:01:01.982Z,2
2019-05-26T00:02:02.156Z,5
2019-05-26T00:03:02.340Z,5
2019-05-26T00:04:01.600Z,5
2019-05-26T00:05:01.842Z,5
2019-05-26T00:06:02.056Z,5
2019-05-26T00:07:02.360Z,3
2019-05-26T00:08:01.539Z,3
2019-05-26T00:09:01.761Z,3
2019-05-26T00:10:02.424Z,3
2019-05-26T00:11:01.780Z,3
2019-05-26T00:12:02.018Z,3
2019-05-26T00:13:02.229Z,3
2019-05-26T00:14:01.437Z,3
2019-05-26T00:15:01.769Z,3
2019-05-26T00:16:01.701Z,3
2019-05-26T00:17:01.918Z,3
2019-05-26T00:18:02.160Z,3
2019-05-26T00:19:02.340Z,3
2019-05-26T00:20:01.548Z,3
2019-05-26T00:21:01.681Z,3
2019-05-26T00:22:02.007Z,3
2019-05-26T00:23:02.238Z,3
2019-05-26T00:24:01.422Z,3
2019-05-26T00:25:01.643Z,2
2019-05-26T00:26:01.621Z,3
2019-05-26T00:27:01.909Z,3
2019-05-26T00:28:02.016Z,3
2019-05-26T00:29:02.269Z,3
2019-05-26T00:30:01.761Z,3
2019-05-26T00:31:01.933Z,3
2019-05-26T00:32:02.241Z,3
2019-05-26T00:33:02.502Z,3
2019-05-26T00:34:01.724Z,3
2019-05-26T00:35:01.968Z,3
2019-05-26T00:36:02.169Z,3
2019-05-26T00:37:02.424Z,2
2019-05-26T00:38:01.595Z,3
2019-05-26T00:39:01.943Z,3
2019-05-26T00:40:01.723Z,3
2019-05-26T00:41:01.957Z,3
2019-05-26T00:42:02.189Z,3
2019-05-26T00:43:01.508Z,2
2019-05-26T00:44:01.704Z,5
2019-05-26T00:45:01.912Z,5
2019-05-26T00:46:02.129Z,5
2019-05-26T00:47:02.404Z,5
2019-05-26T00:48:01.554Z,5
2019-05-26T00:49:01.796Z,5
2019-05-26T00:50:02.021Z,5
2019-05-26T00:51:02.325Z,5
2019-05-26T00:52:01.529Z,5
2019-05-26T00:53:01.707Z,5
2019-05-26T00:54:01.960Z,5
2019-05-26T00:55:02.322Z,3
2019-05-26T00:56:01.427Z,5
2019-05-26T00:57:01.671Z,5
2019-05-26T00:58:01.873Z,5
2019-05-26T00:59:02.161Z,5
2019-05-26T01:00:06.073Z,5
2019-05-26T01:01:01.994Z,3
2019-05-26T01:02:02.167Z,5
2019-05-26T01:03:02.429Z,5
2019-05-26T01:04:01.595Z,5
2019-05-26T01:05:01.859Z,5
2019-05-26T01:06:01.985Z,5
2019-05-26T01:07:02.205Z,2
2019-05-26T01:08:06.342Z,5
2019-05-26T01:09:01.566Z,5
2019-05-26T01:10:02.417Z,5
2019-05-26T01:11:01.707Z,5
2019-05-26T01:12:01.908Z,5
2019-05-26T01:13:02.164Z,3
2019-05-26T01:14:02.327Z,5
2019-05-26T01:15:01.570Z,5
2019-05-26T01:16:01.805Z,5
2019-05-26T01:17:01.598Z,5
2019-05-26T01:18:01.854Z,5
2019-05-26T01:19:02.189Z,5
2019-05-26T01:20:02.480Z,5
2019-05-26T01:21:01.633Z,5
2019-05-26T01:22:01.860Z,5
2019-05-26T01:23:02.115Z,5
2019-05-26T01:24:02.414Z,5
2019-05-26T01:25:01.624Z,5
2019-05-26T01:26:01.845Z,6
2019-05-26T01:27:02.169Z,6
2019-05-26T01:28:02.299Z,6
2019-05-26T01:29:01.585Z,6
2019-05-26T01:30:01.897Z,6
2019-05-26T01:31:02.139Z,3
2019-05-26T01:32:01.985Z,5
2019-05-26T01:33:02.221Z,5
2019-05-26T01:34:02.403Z,5
2019-05-26T01:35:01.672Z,5
2019-05-26T01:36:01.812Z,5
2019-05-26T01:37:02.066Z,3
2019-05-26T01:38:02.301Z,5
2019-05-26T01:39:01.533Z,5
2019-05-26T01:40:01.851Z,5
2019-05-26T01:41:02.049Z,5
2019-05-26T01:42:01.981Z,5
2019-05-26T01:43:02.196Z,5
2019-05-26T01:44:01.538Z,6
2019-05-26T01:45:01.781Z,6
2019-05-26T01:46:02.017Z,6
2019-05-26T01:47:02.301Z,6
2019-05-26T01:48:01.510Z,6
2019-05-26T01:49:01.804Z,3
2019-05-26T01:50:01.978Z,5
2019-05-26T01:51:02.169Z,5
2019-05-26T01:52:02.303Z,5
2019-05-26T01:53:01.560Z,5
2019-05-26T01:54:01.822Z,5
2019-05-26T01:55:02.142Z,5
2019-05-26T01:56:02.254Z,6
2019-05-26T01:57:01.495Z,6
2019-05-26T01:58:01.783Z,6
2019-05-26T01:59:02.040Z,6
2019-05-26T02:00:03.752Z,6
2019-05-26T02:01:01.537Z,5
2019-05-26T02:02:01.741Z,6
2019-05-26T02:03:01.960Z,6
2019-05-26T02:04:02.151Z,6
2019-05-26T02:05:02.400Z,6
2019-05-26T02:06:01.649Z,6
2019-05-26T02:07:01.763Z,0
2019-05-26T02:08:01.710Z,6
2019-05-26T02:09:01.891Z,6
2019-05-26T02:10:02.184Z,6
2019-05-26T02:11:02.358Z,6
2019-05-26T02:12:01.646Z,6
2019-05-26T02:13:01.875Z,4
2019-05-26T02:14:02.080Z,5
2019-05-26T02:15:02.388Z,5
2019-05-26T02:16:01.527Z,5
2019-05-26T02:17:01.788Z,5
2019-05-26T02:18:01.941Z,5
2019-05-26T02:19:02.167Z,5
2019-05-26T02:20:02.428Z,7
2019-05-26T02:21:02.097Z,7
2019-05-26T02:22:02.363Z,7
2019-05-26T02:23:01.541Z,7
2019-05-26T02:24:01.754Z,7
2019-05-26T02:25:02.099Z,2
2019-05-26T02:26:02.343Z,5
2019-05-26T02:27:01.504Z,5
2019-05-26T02:28:01.769Z,5
2019-05-26T02:29:01.966Z,5
2019-05-26T02:30:02.220Z,5
2019-05-26T02:31:02.403Z,6
2019-05-26T02:32:01.735Z,6
2019-05-26T02:33:01.950Z,6
2019-05-26T02:34:02.112Z,6
2019-05-26T02:35:02.414Z,6
2019-05-26T02:36:01.564Z,6
2019-05-26T02:37:01.733Z,0
2019-05-26T02:38:01.982Z,0
2019-05-26T02:39:03.272Z,0
2019-05-26T02:40:02.442Z,0
2019-05-26T02:41:01.640Z,0
2019-05-26T02:42:01.882Z,0
2019-05-26T02:43:02.111Z,0
2019-05-26T02:44:02.258Z,0
2019-05-26T02:45:01.613Z,0
2019-05-26T02:46:02.017Z,0
2019-05-26T02:47:02.268Z,0
2019-05-26T02:48:01.564Z,0
2019-05-26T02:49:01.738Z,2
2019-05-26T02:50:02.131Z,5
2019-05-26T02:51:01.938Z,5
2019-05-26T02:52:02.115Z,5
2019-05-26T02:53:02.378Z,5
2019-05-26T02:54:01.601Z,5
2019-05-26T02:55:01.836Z,6
2019-05-26T02:56:02.018Z,6
2019-05-26T02:57:02.200Z,6
2019-05-26T02:58:01.412Z,6
2019-05-26T02:59:01.725Z,6
2019-05-26T03:00:01.910Z,6
2019-05-26T03:01:01.502Z,5
2019-05-26T03:02:04.324Z,5
2019-05-26T03:03:01.941Z,5
2019-05-26T03:04:02.218Z,5
2019-05-26T03:05:02.414Z,5
2019-05-26T03:06:01.629Z,5
2019-05-26T03:07:01.822Z,2
2019-05-26T03:08:02.068Z,6
2019-05-26T03:09:20.889Z,6
2019-05-26T03:10:01.673Z,6
2019-05-26T03:11:01.837Z,6
2019-05-26T03:12:02.082Z,6
2019-05-26T03:13:02.305Z,6
2019-05-26T03:14:02.231Z,7
2019-05-26T03:15:01.538Z,7
2019-05-26T03:16:01.654Z,7
2019-05-26T03:17:01.658Z,7
2019-05-26T03:18:01.879Z,7
2019-05-26T03:19:02.119Z,2
2019-05-26T03:20:01.600Z,5
2019-05-26T03:21:01.769Z,5
2019-05-26T03:22:01.945Z,5
2019-05-26T03:23:02.244Z,5
2019-05-26T03:24:02.404Z,5
2019-05-26T03:25:01.717Z,6
2019-05-26T03:26:01.859Z,6
2019-05-26T03:27:01.641Z,6
2019-05-26T03:28:01.918Z,6
2019-05-26T03:29:02.209Z,6
2019-05-26T03:30:02.434Z,6
2019-05-26T03:31:01.636Z,5
2019-05-26T03:32:02.006Z,6
2019-05-26T03:33:01.604Z,6
2019-05-26T03:34:01.832Z,6
2019-05-26T03:35:02.178Z,6
2019-05-26T03:36:02.369Z,6
2019-05-26T03:37:01.739Z,5
2019-05-26T03:38:01.984Z,6
2019-05-26T03:39:01.866Z,6
2019-05-26T03:40:02.060Z,6
2019-05-26T03:41:02.299Z,6
2019-05-26T03:42:01.522Z,6
2019-05-26T03:43:01.809Z,5
2019-05-26T03:44:01.995Z,6
2019-05-26T03:45:02.279Z,6
2019-05-26T03:46:02.263Z,6
2019-05-26T03:47:02.402Z,6
2019-05-26T03:48:01.628Z,6
2019-05-26T03:49:01.879Z,6
2019-05-26T03:50:02.149Z,6
2019-05-26T03:51:02.362Z,6
2019-05-26T03:52:01.541Z,6
2019-05-26T03:53:01.808Z,6
2019-05-26T03:54:02.088Z,6
2019-05-26T03:55:02.327Z,3
2019-05-26T03:56:01.533Z,6
2019-05-26T03:57:01.720Z,6
2019-05-26T03:58:01.937Z,6
2019-05-26T03:59:02.139Z,6
2019-05-26T04:00:04.470Z,6
2019-05-26T04:01:02.330Z,5
2019-05-26T04:02:01.653Z,6
2019-05-26T04:03:01.561Z,6
2019-05-26T04:04:01.832Z,6
2019-05-26T04:05:01.828Z,6
2019-05-26T04:06:02.031Z,6
2019-05-26T04:07:02.311Z,4
2019-05-26T04:08:04.889Z,5
2019-05-26T04:09:01.728Z,5
2019-05-26T04:10:05.247Z,5
2019-05-26T04:11:02.172Z,5
2019-05-26T04:12:01.410Z,5
2019-05-26T04:13:01.702Z,6
2019-05-26T04:14:01.916Z,6
2019-05-26T04:15:01.909Z,6
2019-05-26T04:16:01.987Z,6
2019-05-26T04:17:02.280Z,6
2019-05-26T04:18:01.441Z,6
2019-05-26T04:19:01.666Z,5
2019-05-26T04:20:01.826Z,6
2019-05-26T04:21:02.083Z,6
2019-05-26T04:22:02.259Z,6
2019-05-26T04:23:01.544Z,6
2019-05-26T04:24:01.807Z,6
2019-05-26T04:25:02.087Z,5
2019-05-26T04:26:02.286Z,5
2019-05-26T04:27:01.486Z,5
2019-05-26T04:28:01.725Z,5
2019-05-26T04:29:01.925Z,5
2019-05-26T04:30:02.306Z,5
2019-05-26T04:31:01.426Z,5
2019-05-26T04:32:02.060Z,5
2019-05-26T04:33:01.845Z,5
2019-05-26T04:34:02.110Z,5
2019-05-26T04:35:02.421Z,5
2019-05-26T04:36:01.647Z,5
2019-05-26T04:37:01.695Z,3
2019-05-26T04:38:02.048Z,6
2019-05-26T04:39:02.189Z,6
2019-05-26T04:40:24.430Z,6
2019-05-26T04:41:01.914Z,6
2019-05-26T04:42:02.042Z,6
2019-05-26T04:43:02.431Z,5
2019-05-26T04:44:01.576Z,3
2019-05-26T04:45:01.834Z,3
2019-05-26T04:46:02.050Z,3
2019-05-26T04:47:02.356Z,3
2019-05-26T04:48:01.540Z,3
2019-05-26T04:49:01.689Z,4
2019-05-26T04:50:01.961Z,5
2019-05-26T04:51:02.199Z,5
2019-05-26T04:52:01.407Z,5
2019-05-26T04:53:06.829Z,5
2019-05-26T04:54:01.860Z,5
2019-05-26T04:55:02.141Z,5
2019-05-26T04:56:02.346Z,6
2019-05-26T04:57:01.654Z,6
2019-05-26T04:58:01.739Z,6
2019-05-26T04:59:01.988Z,6
2019-05-26T05:00:05.067Z,6
2019-05-26T05:01:02.385Z,5
2019-05-26T05:02:01.564Z,5
2019-05-26T05:03:01.860Z,5
2019-05-26T05:04:02.225Z,5
2019-05-26T05:05:02.171Z,5
2019-05-26T05:06:01.463Z,5
2019-05-26T05:07:01.693Z,5
2019-05-26T05:08:01.849Z,5
2019-05-26T05:09:01.857Z,5
2019-05-26T05:10:02.066Z,5
2019-05-26T05:11:02.307Z,5
2019-05-26T05:12:01.552Z,5
2019-05-26T05:13:01.793Z,5
2019-05-26T05:14:02.108Z,6
2019-05-26T05:15:02.317Z,6
2019-05-26T05:16:01.525Z,6
2019-05-26T05:17:01.748Z,6
2019-05-26T05:18:02.015Z,6
2019-05-26T05:19:02.162Z,3
2019-05-26T05:20:02.544Z,5
2019-05-26T05:21:01.723Z,5
2019-05-26T05:22:01.987Z,5
2019-05-26T05:23:02.201Z,5
2019-05-26T05:24:01.412Z,5
2019-05-26T05:25:01.735Z,5
2019-05-26T05:26:01.930Z,5
2019-05-26T05:27:02.102Z,5
2019-05-26T05:28:02.285Z,5
2019-05-26T05:29:01.515Z,5
2019-05-26T05:30:01.693Z,5
2019-05-26T05:31:01.893Z,3
2019-05-26T05:32:02.188Z,5
2019-05-26T05:33:02.332Z,5
2019-05-26T05:34:01.594Z,5
2019-05-26T05:35:01.946Z,5
2019-05-26T05:36:01.991Z,5
2019-05-26T05:37:02.313Z,5
2019-05-26T05:38:01.562Z,5
2019-05-26T05:39:01.764Z,5
2019-05-26T05:40:01.954Z,5
2019-05-26T05:41:02.214Z,5
2019-05-26T05:42:01.493Z,5
2019-05-26T05:43:01.650Z,3
2019-05-26T05:44:01.892Z,5
2019-05-26T05:45:02.266Z,5
2019-05-26T05:46:02.388Z,5
2019-05-26T05:47:01.632Z,5
2019-05-26T05:48:01.831Z,5
2019-05-26T05:49:02.002Z,4
2019-05-26T05:50:02.320Z,6
2019-05-26T05:51:01.495Z,6
2019-05-26T05:52:01.739Z,6
2019-05-26T05:53:01.932Z,6
2019-05-26T05:54:02.244Z,6
2019-05-26T05:55:02.495Z,4
2019-05-26T05:56:01.613Z,5
2019-05-26T05:57:01.813Z,5
2019-05-26T05:58:02.062Z,5
2019-05-26T05:59:02.333Z,5
2019-05-26T06:00:03.709Z,5
2019-05-26T06:01:01.494Z,2
2019-05-26T06:02:01.726Z,5
2019-05-26T06:03:02.304Z,5
2019-05-26T06:04:01.585Z,5
2019-05-26T06:05:01.803Z,5
2019-05-26T06:06:02.057Z,5
2019-05-26T06:07:02.349Z,3
2019-05-26T06:08:01.540Z,5
2019-05-26T06:09:01.872Z,5
2019-05-26T06:10:02.085Z,5
2019-05-26T06:11:15.496Z,5
2019-05-26T06:12:01.535Z,5
2019-05-26T06:13:01.708Z,4
2019-05-26T06:14:01.929Z,5
2019-05-26T06:15:02.090Z,5
2019-05-26T06:16:02.018Z,5
2019-05-26T06:17:02.179Z,5
2019-05-26T06:18:01.473Z,5
2019-05-26T06:19:01.694Z,4
2019-05-26T06:20:02.086Z,5
2019-05-26T06:21:02.048Z,5
2019-05-26T06:22:02.315Z,5
2019-05-26T06:23:01.537Z,5
2019-05-26T06:24:01.871Z,5
2019-05-26T06:25:02.185Z,3
2019-05-26T06:26:02.290Z,5
2019-05-26T06:27:01.465Z,5
2019-05-26T06:28:01.722Z,5
2019-05-26T06:29:01.789Z,5
2019-05-26T06:30:02.056Z,5
2019-05-26T06:31:02.283Z,4
2019-05-26T06:32:01.818Z,5
2019-05-26T06:33:01.840Z,5
2019-05-26T06:34:02.251Z,5
2019-05-26T06:35:02.038Z,5
2019-05-26T06:36:01.752Z,5
2019-05-26T06:37:01.734Z,5
2019-05-26T06:38:01.963Z,6
2019-05-26T06:39:02.137Z,6
2019-05-26T06:40:02.378Z,6
2019-05-26T06:41:01.699Z,6
2019-05-26T06:42:01.929Z,6
2019-05-26T06:43:02.090Z,3
2019-05-26T06:44:02.341Z,5
2019-05-26T06:45:01.619Z,5
2019-05-26T06:46:01.840Z,5
2019-05-26T06:47:02.138Z,5
2019-05-26T06:48:02.277Z,5
2019-05-26T06:49:01.467Z,5
2019-05-26T06:50:01.793Z,5
2019-05-26T06:51:02.042Z,5
2019-05-26T06:52:02.262Z,5
2019-05-26T06:53:01.525Z,5
2019-05-26T06:54:02.305Z,5
2019-05-26T06:55:01.773Z,5
2019-05-26T06:56:01.740Z,5
2019-05-26T06:57:01.973Z,5
2019-05-26T06:58:02.201Z,5
2019-05-26T06:59:03.086Z,5
2019-05-26T07:00:03.501Z,5
2019-05-26T07:01:02.369Z,3
2019-05-26T07:02:01.638Z,6
2019-05-26T07:03:01.748Z,6
2019-05-26T07:04:01.977Z,6
2019-05-26T07:05:02.286Z,6
2019-05-26T07:06:01.483Z,6
2019-05-26T07:07:01.758Z,6
2019-05-26T07:08:01.550Z,5
2019-05-26T07:09:01.759Z,5
2019-05-26T07:10:02.150Z,5
2019-05-26T07:11:02.262Z,5
2019-05-26T07:12:01.540Z,5
2019-05-26T07:13:01.743Z,3
2019-05-26T07:14:02.068Z,7
2019-05-26T07:15:02.282Z,7
2019-05-26T07:16:01.527Z,7
2019-05-26T07:17:01.752Z,7
2019-05-26T07:18:02.442Z,7
2019-05-26T07:19:02.319Z,3
2019-05-26T07:20:01.607Z,5
2019-05-26T07:21:01.516Z,5
2019-05-26T07:22:01.722Z,5
2019-05-26T07:23:02.091Z,5
2019-05-26T07:24:02.241Z,5
2019-05-26T07:25:02.435Z,3
2019-05-26T07:26:01.657Z,6
2019-05-26T07:27:01.771Z,6
2019-05-26T07:28:01.660Z,6
2019-05-26T07:29:01.937Z,6
2019-05-26T07:30:02.205Z,6
2019-05-26T07:31:02.351Z,5
2019-05-26T07:32:01.620Z,6
2019-05-26T07:33:01.939Z,6
2019-05-26T07:34:02.132Z,6
2019-05-26T07:35:02.404Z,6
2019-05-26T07:36:01.651Z,6
2019-05-26T07:37:01.839Z,5
2019-05-26T07:38:01.864Z,6
2019-05-26T07:39:02.130Z,6
2019-05-26T07:40:02.399Z,6
2019-05-26T07:41:01.539Z,6
2019-05-26T07:42:10.150Z,6
2019-05-26T07:43:01.999Z,3
2019-05-26T07:44:02.150Z,5
2019-05-26T07:45:01.496Z,5
2019-05-26T07:46:01.697Z,5
2019-05-26T07:47:01.890Z,5
2019-05-26T07:48:02.278Z,5
2019-05-26T07:49:01.417Z,6
2019-05-26T07:50:01.673Z,5
2019-05-26T07:51:01.858Z,5
2019-05-26T07:52:02.046Z,5
2019-05-26T07:53:02.312Z,5
2019-05-26T07:54:01.462Z,5
2019-05-26T07:55:01.789Z,6
2019-05-26T07:56:01.682Z,6
2019-05-26T07:57:01.903Z,6
2019-05-26T07:58:02.143Z,6
2019-05-26T07:59:02.419Z,6
2019-05-26T08:00:03.225Z,6
2019-05-26T08:01:02.065Z,5
2019-05-26T08:02:01.865Z,6
2019-05-26T08:03:02.145Z,6
2019-05-26T08:04:02.321Z,6
2019-05-26T08:05:01.577Z,6
2019-05-26T08:06:01.768Z,6
2019-05-26T08:07:01.911Z,6
2019-05-26T08:08:12.155Z,7
2019-05-26T08:09:02.484Z,7
2019-05-26T08:10:01.854Z,7
2019-05-26T08:11:01.829Z,7
2019-05-26T08:12:01.652Z,7
2019-05-26T08:13:01.816Z,6
2019-05-26T08:14:02.028Z,5
2019-05-26T08:15:02.187Z,5
2019-05-26T08:16:01.940Z,5
2019-05-26T08:17:02.187Z,5
2019-05-26T08:18:01.516Z,5
2019-05-26T08:19:01.777Z,6
2019-05-26T08:20:02.013Z,6
2019-05-26T08:21:01.992Z,6
2019-05-26T08:22:01.771Z,6
2019-05-26T08:23:02.038Z,6
2019-05-26T08:24:02.349Z,6
2019-05-26T08:25:01.525Z,6
2019-05-26T08:26:01.736Z,6
2019-05-26T08:27:02.011Z,6
2019-05-26T08:28:02.231Z,6
2019-05-26T08:29:01.496Z,6
2019-05-26T08:30:01.777Z,6
2019-05-26T08:31:01.666Z,5
2019-05-26T08:32:02.090Z,3
2019-05-26T08:33:02.145Z,3
2019-05-26T08:34:02.429Z,3
2019-05-26T08:35:01.669Z,3
2019-05-26T08:36:01.782Z,3
2019-05-26T08:37:01.967Z,3
2019-05-26T08:38:02.217Z,5
2019-05-26T08:39:01.462Z,5
2019-05-26T08:40:01.810Z,5
2019-05-26T08:41:02.014Z,5
2019-05-26T08:42:02.340Z,5
2019-05-26T08:43:01.505Z,5
2019-05-26T08:44:01.821Z,6
2019-05-26T08:45:02.318Z,6
2019-05-26T08:46:01.479Z,6
2019-05-26T08:47:01.685Z,6
2019-05-26T08:48:01.960Z,6
2019-05-26T08:49:02.167Z,6
2019-05-26T08:50:02.467Z,6
2019-05-26T08:51:01.606Z,6
2019-05-26T08:52:01.741Z,6
2019-05-26T08:53:01.928Z,6
2019-05-26T08:54:02.223Z,6
2019-05-26T08:55:01.490Z,3
2019-05-26T08:56:01.756Z,6
2019-05-26T08:57:01.909Z,6
2019-05-26T08:58:02.204Z,6
2019-05-26T08:59:02.452Z,6
2019-05-26T09:00:04.290Z,6
2019-05-26T09:01:02.199Z,6
2019-05-26T09:02:02.291Z,5
2019-05-26T09:03:01.538Z,5
2019-05-26T09:04:01.842Z,5
2019-05-26T09:05:01.999Z,5
2019-05-26T09:06:02.162Z,5
2019-05-26T09:07:01.430Z,3
2019-05-26T09:08:01.745Z,6
2019-05-26T09:09:01.842Z,6
2019-05-26T09:10:02.168Z,6
2019-05-26T09:11:02.371Z,6
2019-05-26T09:12:01.582Z,6
2019-05-26T09:13:01.850Z,5
2019-05-26T09:14:02.012Z,6
2019-05-26T09:15:02.484Z,6
2019-05-26T09:16:01.595Z,6
2019-05-26T09:17:01.797Z,6
2019-05-26T09:18:02.038Z,6
2019-05-26T09:19:02.388Z,5
2019-05-26T09:20:01.610Z,6
2019-05-26T09:21:01.844Z,6
2019-05-26T09:22:02.102Z,6
2019-05-26T09:23:02.265Z,6
2019-05-26T09:24:01.555Z,6
2019-05-26T09:25:02.036Z,5
2019-05-26T09:26:02.176Z,6
2019-05-26T09:27:02.354Z,6
2019-05-26T09:28:01.642Z,6
2019-05-26T09:29:01.657Z,6
2019-05-26T09:30:01.869Z,6
2019-05-26T09:31:02.085Z,5
2019-05-26T09:32:02.176Z,6
2019-05-26T09:33:01.921Z,6
2019-05-26T09:34:02.075Z,6
2019-05-26T09:35:02.361Z,6
2019-05-26T09:36:01.538Z,6
2019-05-26T09:37:01.751Z,5
2019-05-26T09:38:01.714Z,7
2019-05-26T09:39:01.881Z,7
2019-05-26T09:40:02.113Z,7
2019-05-26T09:41:02.127Z,7
2019-05-26T09:42:06.878Z,7
2019-05-26T09:43:15.025Z,7
2019-05-26T09:44:01.681Z,6
2019-05-26T09:45:02.087Z,6
2019-05-26T09:46:02.327Z,6
2019-05-26T09:47:01.532Z,6
2019-05-26T09:48:01.546Z,6
2019-05-26T09:49:01.648Z,6
2019-05-26T09:50:01.992Z,7
2019-05-26T09:51:02.122Z,7
2019-05-26T09:52:01.946Z,7
2019-05-26T09:53:02.183Z,7
2019-05-26T09:54:02.213Z,7
2019-05-26T09:55:01.736Z,5
2019-05-26T09:56:01.820Z,6
2019-05-26T09:57:01.995Z,6
2019-05-26T09:58:02.310Z,6
2019-05-26T09:59:01.522Z,6
2019-05-26T10:00:04.323Z,6
2019-05-26T10:01:02.196Z,6
2019-05-26T10:02:02.474Z,6
2019-05-26T10:03:01.672Z,6
2019-05-26T10:04:01.967Z,6
2019-05-26T10:05:01.812Z,6
2019-05-26T10:06:02.119Z,6
2019-05-26T10:07:02.340Z,5
2019-05-26T10:08:01.833Z,6
2019-05-26T10:09:01.968Z,6
2019-05-26T10:10:02.194Z,6
2019-05-26T10:11:01.432Z,6
2019-05-26T10:12:01.715Z,6
2019-05-26T10:13:02.005Z,5
2019-05-26T10:14:02.152Z,6
2019-05-26T10:15:02.363Z,6
2019-05-26T10:16:01.614Z,6
2019-05-26T10:17:01.991Z,6
2019-05-26T10:18:02.111Z,6
2019-05-26T10:19:02.314Z,6
2019-05-26T10:20:01.619Z,7
2019-05-26T10:21:01.764Z,7
2019-05-26T10:22:02.089Z,7
2019-05-26T10:23:02.294Z,7
2019-05-26T10:24:01.472Z,7
2019-05-26T10:25:01.745Z,5
2019-05-26T10:26:01.903Z,6
2019-05-26T10:27:02.156Z,6
2019-05-26T10:28:02.437Z,6
2019-05-26T10:29:01.581Z,6
2019-05-26T10:30:01.885Z,6
2019-05-26T10:31:01.992Z,5
2019-05-26T10:32:02.247Z,4
2019-05-26T10:33:01.498Z,4
2019-05-26T10:34:01.687Z,4
2019-05-26T10:35:01.820Z,4
2019-05-26T10:36:01.976Z,4
2019-05-26T10:37:02.124Z,5
2019-05-26T10:38:02.277Z,6
2019-05-26T10:39:01.454Z,6
2019-05-26T10:40:01.756Z,6
2019-05-26T10:41:01.886Z,6
2019-05-26T10:42:02.120Z,6
2019-05-26T10:43:02.343Z,5
2019-05-26T10:44:01.474Z,6
2019-05-26T10:45:01.815Z,6
2019-05-26T10:46:01.904Z,6
2019-05-26T10:47:02.085Z,6
2019-05-26T10:48:02.213Z,6
2019-05-26T10:49:01.402Z,6
2019-05-26T10:50:01.668Z,7
2019-05-26T10:51:01.854Z,7
2019-05-26T10:52:02.019Z,7
2019-05-26T10:53:02.270Z,7
2019-05-26T10:54:01.465Z,7
2019-05-26T10:55:01.700Z,5
2019-05-26T10:56:01.910Z,6
2019-05-26T10:57:02.100Z,6
2019-05-26T10:58:02.224Z,6
2019-05-26T10:59:02.323Z,6
2019-05-26T11:00:05.183Z,6
2019-05-26T11:01:02.081Z,7
2019-05-26T11:02:06.772Z,6
2019-05-26T11:03:01.481Z,6
2019-05-26T11:04:01.658Z,6
2019-05-26T11:05:01.982Z,6
2019-05-26T11:06:02.328Z,6
2019-05-26T11:07:01.444Z,5
2019-05-26T11:08:01.787Z,4
2019-05-26T11:09:01.860Z,4
2019-05-26T11:10:02.168Z,4
2019-05-26T11:11:02.321Z,4
2019-05-26T11:12:01.653Z,4
2019-05-26T11:13:01.851Z,6
2019-05-26T11:14:03.368Z,4
2019-05-26T11:15:01.793Z,4
2019-05-26T11:16:01.862Z,4
2019-05-26T11:17:02.097Z,4
2019-05-26T11:18:01.584Z,4
2019-05-26T11:19:01.927Z,6
2019-05-26T11:20:02.240Z,6
2019-05-26T11:21:02.271Z,6
2019-05-26T11:22:01.466Z,6
2019-05-26T11:23:01.621Z,6
2019-05-26T11:24:01.930Z,6
2019-05-26T11:25:02.309Z,5
2019-05-26T11:26:01.510Z,4
2019-05-26T11:27:09.350Z,4
2019-05-26T11:28:01.867Z,4
2019-05-26T11:29:02.078Z,4
2019-05-26T11:30:01.996Z,4
2019-05-26T11:31:02.094Z,3
2019-05-26T11:32:02.315Z,4
2019-05-26T11:33:01.543Z,4
2019-05-26T11:34:01.814Z,4
2019-05-26T11:35:02.477Z,4
2019-05-26T11:36:02.210Z,4
2019-05-26T11:37:01.423Z,6
2019-05-26T11:38:01.604Z,4
2019-05-26T11:39:01.795Z,4
2019-05-26T11:40:02.137Z,4
2019-05-26T11:41:02.268Z,4
2019-05-26T11:42:12.866Z,4
2019-05-26T11:43:15.768Z,3
2019-05-26T11:44:01.476Z,4
2019-05-26T11:45:01.818Z,4
2019-05-26T11:46:02.040Z,4
2019-05-26T11:47:02.147Z,4
2019-05-26T11:48:01.403Z,4
2019-05-26T11:49:01.639Z,3
2019-05-26T11:50:01.815Z,4
2019-05-26T11:51:02.091Z,4
2019-05-26T11:52:02.238Z,4
2019-05-26T11:53:01.448Z,4
2019-05-26T11:54:01.683Z,4
2019-05-26T11:55:01.940Z,4
2019-05-26T11:56:02.134Z,4
2019-05-26T11:57:02.459Z,4
2019-05-26T11:58:01.576Z,4
2019-05-26T11:59:01.804Z,4
2019-05-26T12:00:03.902Z,4
2019-05-26T12:01:01.647Z,4
2019-05-26T12:02:01.967Z,4
2019-05-26T12:03:02.094Z,4
2019-05-26T12:04:02.331Z,4
2019-05-26T12:05:01.585Z,4
2019-05-26T12:06:01.705Z,4
2019-05-26T12:07:04.486Z,2
2019-05-26T12:08:02.232Z,4
2019-05-26T12:09:02.378Z,4
2019-05-26T12:10:01.786Z,4
2019-05-26T12:11:01.798Z,4
2019-05-26T12:12:02.084Z,4
2019-05-26T12:13:02.273Z,3
2019-05-26T12:14:01.449Z,4
2019-05-26T12:15:01.732Z,4
2019-05-26T12:16:01.901Z,4
2019-05-26T12:17:02.087Z,4
2019-05-26T12:18:02.428Z,4
2019-05-26T12:19:01.641Z,3
2019-05-26T12:20:05.026Z,4
2019-05-26T12:21:02.155Z,4
2019-05-26T12:22:02.018Z,4
2019-05-26T12:23:02.302Z,4
2019-05-26T12:24:01.494Z,4
2019-05-26T12:25:01.709Z,3
2019-05-26T12:26:01.949Z,3
2019-05-26T12:27:02.162Z,3
2019-05-26T12:28:02.431Z,3
2019-05-26T12:29:01.703Z,3
2019-05-26T12:30:01.991Z,3
2019-05-26T12:31:02.032Z,3
2019-05-26T12:32:02.261Z,3
2019-05-26T12:33:01.484Z,3
2019-05-26T12:34:01.603Z,3
2019-05-26T12:35:01.841Z,3
2019-05-26T12:36:02.037Z,3
2019-05-26T12:37:02.171Z,3
2019-05-26T12:38:02.415Z,3
2019-05-26T12:39:01.579Z,3
2019-05-26T12:40:01.883Z,3
2019-05-26T12:41:02.026Z,3
2019-05-26T12:42:02.209Z,3
2019-05-26T12:43:01.459Z,3
2019-05-26T12:44:01.690Z,3
2019-05-26T12:45:01.974Z,3
2019-05-26T12:46:02.156Z,3
2019-05-26T12:47:02.410Z,3
2019-05-26T12:48:01.730Z,3
2019-05-26T12:49:01.933Z,2
2019-05-26T12:50:02.193Z,2
2019-05-26T12:51:02.438Z,2
2019-05-26T12:52:01.566Z,2
2019-05-26T12:53:01.758Z,2
2019-05-26T12:54:01.948Z,2
2019-05-26T12:55:02.245Z,3
2019-05-26T12:56:01.482Z,2
2019-05-26T12:57:01.751Z,2
2019-05-26T12:58:01.953Z,2
2019-05-26T12:59:02.193Z,2
2019-05-26T13:00:04.315Z,2
2019-05-26T13:01:02.055Z,3
2019-05-26T13:02:02.333Z,3
2019-05-26T13:03:02.067Z,3
2019-05-26T13:04:02.418Z,3
2019-05-26T13:05:01.551Z,3
2019-05-26T13:06:01.797Z,3
2019-05-26T13:07:02.165Z,3
2019-05-26T13:08:01.489Z,2
2019-05-26T13:09:01.790Z,2
2019-05-26T13:10:02.031Z,2
2019-05-26T13:11:02.218Z,2
2019-05-26T13:12:01.489Z,2
2019-05-26T13:13:01.642Z,3
2019-05-26T13:14:01.884Z,2
2019-05-26T13:15:06.054Z,2
2019-05-26T13:16:02.266Z,2
2019-05-26T13:17:01.834Z,2
2019-05-26T13:18:01.701Z,2
2019-05-26T13:19:01.988Z,2
2019-05-26T13:20:01.948Z,2
2019-05-26T13:21:02.027Z,2
2019-05-26T13:22:02.234Z,2
2019-05-26T13:23:01.402Z,2
2019-05-26T13:24:01.707Z,2
2019-05-26T13:25:01.994Z,2
2019-05-26T13:26:02.204Z,3
2019-05-26T13:27:02.319Z,3
2019-05-26T13:28:02.123Z,3
2019-05-26T13:29:02.353Z,3
2019-05-26T13:30:01.564Z,3
2019-05-26T13:31:01.743Z,2
2019-05-26T13:32:01.956Z,1
2019-05-26T13:33:02.205Z,1
2019-05-26T13:34:02.357Z,1
2019-05-26T13:35:01.623Z,1
2019-05-26T13:36:01.805Z,1
2019-05-26T13:37:02.310Z,1
2019-05-26T13:38:01.480Z,2
2019-05-26T13:39:01.710Z,2
2019-05-26T13:40:01.986Z,2
2019-05-26T13:41:02.093Z,2
2019-05-26T13:42:02.347Z,2
2019-05-26T13:43:01.602Z,1
2019-05-26T13:44:01.744Z,2
2019-05-26T13:45:02.039Z,2
2019-05-26T13:46:02.267Z,2
2019-05-26T13:47:01.410Z,2
2019-05-26T13:48:01.550Z,2
2019-05-26T13:49:01.789Z,2
2019-05-26T13:50:02.128Z,1
2019-05-26T13:51:02.414Z,1
2019-05-26T13:52:02.319Z,1
2019-05-26T13:53:01.575Z,1
2019-05-26T13:54:01.795Z,1
2019-05-26T13:55:01.572Z,1
2019-05-26T13:56:01.689Z,1
2019-05-26T13:57:01.807Z,1
2019-05-26T13:58:02.091Z,1
2019-05-26T13:59:01.447Z,1
2019-05-26T14:00:04.956Z,1
2019-05-26T14:01:01.747Z,1
2019-05-26T14:02:02.040Z,1
2019-05-26T14:03:02.207Z,1
2019-05-26T14:04:01.492Z,1
2019-05-26T14:05:01.713Z,1
2019-05-26T14:06:02.050Z,1
2019-05-26T14:07:02.023Z,2
2019-05-26T14:08:02.324Z,2
2019-05-26T14:09:02.356Z,2
2019-05-26T14:10:01.694Z,2
2019-05-26T14:11:01.571Z,2
2019-05-26T14:12:01.661Z,2
2019-05-26T14:13:01.887Z,1
2019-05-26T14:14:02.070Z,1
2019-05-26T14:15:02.284Z,1
2019-05-26T14:16:01.443Z,1
2019-05-26T14:17:01.687Z,1
2019-05-26T14:18:01.835Z,1
2019-05-26T14:19:02.095Z,0
2019-05-26T14:20:02.498Z,2
2019-05-26T14:21:01.632Z,2
2019-05-26T14:22:01.859Z,2
2019-05-26T14:23:01.859Z,2
2019-05-26T14:24:02.002Z,2
2019-05-26T14:25:02.348Z,2
2019-05-26T14:26:01.493Z,1
2019-05-26T14:27:01.794Z,1
2019-05-26T14:28:01.887Z,1
2019-05-26T14:29:02.067Z,1
2019-05-26T14:30:02.161Z,1
2019-05-26T14:31:02.298Z,1
2019-05-26T14:32:01.489Z,2
2019-05-26T14:33:01.494Z,2
2019-05-26T14:34:01.676Z,2
2019-05-26T14:35:02.222Z,2
2019-05-26T14:36:02.269Z,2
2019-05-26T14:37:01.459Z,1
2019-05-26T14:38:01.734Z,1
2019-05-26T14:39:01.937Z,1
2019-05-26T14:40:02.271Z,1
2019-05-26T14:41:02.418Z,1
2019-05-26T14:42:01.607Z,1
2019-05-26T14:43:02.054Z,1
2019-05-26T14:44:01.910Z,1
2019-05-26T14:45:04.087Z,1
2019-05-26T14:46:02.371Z,1
2019-05-26T14:47:01.603Z,1